createdAt,value
2018-04-19T00:01:21.924Z,18.60
2018-04-19T00:03:51.704Z,18.60
2018-04-19T00:06:19.943Z,18.60
2018-04-19T00:08:49.703Z,18.60
2018-04-19T00:11:18.737Z,18.60
2018-04-19T00:13:46.966Z,18.60
2018-04-19T00:16:15.203Z,18.50
2018-04-19T00:18:44.218Z,18.50
2018-04-19T00:21:13.222Z,18.40
2018-04-19T00:23:41.479Z,18.40
2018-04-19T00:26:09.719Z,18.30
2018-04-19T00:28:39.498Z,18.30
2018-04-19T00:33:37.196Z,18.10
2018-04-19T00:38:35.318Z,18.00
2018-04-19T00:43:33.455Z,18.00
2018-04-19T00:48:32.642Z,17.90
2018-04-19T00:51:00.911Z,17.90
2018-04-19T00:53:29.908Z,17.90
2018-04-19T00:55:58.140Z,17.90
2018-04-19T00:58:27.542Z,17.90
2018-04-19T01:00:56.535Z,17.90
2018-04-19T01:03:26.269Z,17.90
2018-04-19T01:05:55.367Z,17.90
2018-04-19T01:08:23.591Z,17.90
2018-04-19T01:10:52.588Z,18.00
2018-04-19T01:13:20.858Z,18.00
2018-04-19T01:15:49.082Z,18.00
2018-04-19T01:18:17.347Z,18.00
2018-04-19T01:20:45.578Z,18.10
2018-04-19T01:25:43.283Z,18.20
2018-04-19T01:28:11.515Z,18.20
2018-04-19T01:30:39.738Z,18.20
2018-04-19T01:33:09.510Z,18.20
2018-04-19T01:35:49.442Z,18.20
2018-04-19T01:38:18.183Z,18.20
2018-04-19T01:40:46.408Z,18.20
2018-04-19T01:43:14.647Z,18.10
2018-04-19T01:45:42.951Z,18.10
2018-04-19T01:48:11.184Z,18.10
2018-04-19T01:50:39.410Z,18.10
2018-04-19T01:53:07.695Z,18.00
2018-04-19T01:55:36.682Z,18.00
2018-04-19T01:58:06.050Z,18.00
2018-04-19T02:00:35.081Z,17.90
2018-04-19T02:03:03.307Z,17.90
2018-04-19T02:05:31.587Z,17.80
2018-04-19T02:08:00.584Z,17.80
2018-04-19T02:10:29.207Z,17.70
2018-04-19T02:12:57.439Z,17.70
2018-04-19T02:17:55.559Z,17.60
2018-04-19T02:20:23.796Z,17.50
2018-04-19T02:22:52.063Z,17.40
2018-04-19T02:25:20.292Z,17.40
2018-04-19T02:27:48.515Z,17.40
2018-04-19T02:30:18.285Z,17.40
2018-04-19T02:32:46.511Z,17.40
2018-04-19T02:35:14.737Z,17.30
2018-04-19T02:37:43.022Z,17.30
2018-04-19T02:40:11.247Z,17.30
2018-04-19T02:42:40.980Z,17.30
2018-04-19T02:47:39.092Z,17.30
2018-04-19T02:50:07.324Z,17.20
2018-04-19T02:55:05.437Z,17.20
2018-04-19T02:57:33.660Z,17.20
2018-04-19T03:00:01.936Z,17.20
2018-04-19T03:02:30.163Z,17.20
2018-04-19T03:04:59.896Z,17.20
2018-04-19T03:07:28.164Z,17.20
2018-04-19T03:09:56.400Z,17.10
2018-04-19T03:12:24.621Z,17.10
2018-04-19T03:14:52.912Z,17.00
2018-04-19T03:17:21.135Z,16.90
2018-04-19T03:19:49.358Z,16.90
2018-04-19T03:22:17.627Z,16.80
2018-04-19T03:24:46.623Z,16.80
2018-04-19T03:27:14.854Z,16.80
2018-04-19T03:29:43.116Z,16.80
2018-04-19T03:32:11.346Z,16.80
2018-04-19T03:37:10.205Z,16.70
2018-04-19T03:42:08.166Z,16.50
2018-04-19T03:44:37.941Z,16.40
2018-04-19T03:47:06.178Z,16.40
2018-04-19T03:49:34.799Z,16.30
2018-04-19T03:52:03.287Z,16.20
2018-04-19T03:54:31.909Z,16.10
2018-04-19T03:57:00.133Z,16.10
2018-04-19T03:59:29.247Z,16.00
2018-04-19T04:01:57.475Z,16.00
2018-04-19T04:04:26.842Z,15.90
2018-04-19T04:06:56.620Z,15.90
2018-04-19T04:09:24.858Z,15.90
2018-04-19T04:11:53.079Z,15.80
2018-04-19T04:17:02.576Z,15.80
2018-04-19T04:22:41.982Z,15.70
2018-04-19T04:25:10.312Z,15.70
2018-04-19T04:27:39.312Z,15.60
2018-04-19T04:30:07.535Z,15.60
2018-04-19T04:32:36.246Z,15.60
2018-04-19T04:35:05.985Z,15.60
2018-04-19T04:37:34.979Z,15.60
2018-04-19T04:40:04.010Z,15.50
2018-04-19T04:42:33.007Z,15.50
2018-04-19T04:45:01.244Z,15.50
2018-04-19T04:49:58.975Z,15.50
2018-04-19T04:52:27.212Z,15.50
2018-04-19T04:54:55.494Z,15.50
2018-04-19T04:57:23.728Z,15.50
2018-04-19T04:59:53.095Z,15.50
2018-04-19T05:02:22.140Z,15.50
2018-04-19T05:04:50.367Z,15.50
2018-04-19T05:07:19.363Z,15.50
2018-04-19T05:09:47.640Z,15.50
2018-04-19T05:12:15.872Z,15.50
2018-04-19T05:14:44.103Z,15.60
2018-04-19T05:17:12.383Z,15.60
2018-04-19T05:19:40.606Z,15.60
2018-04-19T05:22:09.968Z,15.60
2018-04-19T05:24:38.995Z,15.60
2018-04-19T05:29:36.730Z,15.70
2018-04-19T05:32:04.990Z,15.70
2018-04-19T05:34:33.219Z,15.80
2018-04-19T05:39:31.351Z,15.90
2018-04-19T05:41:59.975Z,16.00
2018-04-19T05:44:29.000Z,16.10
2018-04-19T05:46:57.230Z,16.10
2018-04-19T05:49:25.503Z,16.20
2018-04-19T05:51:53.735Z,16.30
2018-04-19T05:54:21.975Z,16.30
2018-04-19T05:56:50.221Z,16.40
2018-04-19T05:59:18.446Z,16.50
2018-04-19T06:01:46.712Z,16.60
2018-04-19T06:04:14.978Z,16.70
2018-04-19T06:06:43.980Z,16.70
2018-04-19T06:09:12.239Z,16.90
2018-04-19T06:11:41.266Z,17.00
2018-04-19T06:14:10.255Z,17.10
2018-04-19T06:16:38.514Z,17.20
2018-04-19T06:19:06.784Z,17.40
2018-04-19T06:21:35.782Z,17.50
2018-04-19T06:24:04.848Z,17.60
2018-04-19T06:26:33.078Z,17.80
2018-04-19T06:31:31.211Z,18.10
2018-04-19T06:33:59.431Z,18.20
2018-04-19T06:36:28.431Z,18.40
2018-04-19T06:38:58.218Z,18.60
2018-04-19T06:41:26.460Z,18.80
2018-04-19T06:43:54.694Z,19.00
2018-04-19T06:46:23.728Z,19.20
2018-04-19T06:48:51.956Z,19.40
2018-04-19T06:51:20.210Z,19.60
2018-04-19T06:53:48.881Z,19.90
2018-04-19T06:56:17.107Z,20.20
2018-04-19T06:58:46.851Z,20.50
2018-04-19T07:01:16.247Z,20.80
2018-04-19T07:03:45.611Z,21.10
2018-04-19T07:06:14.606Z,21.30
2018-04-19T07:08:42.880Z,21.50
2018-04-19T07:11:11.108Z,21.70
2018-04-19T07:13:39.360Z,21.90
2018-04-19T07:16:07.624Z,22.00
2018-04-19T07:18:37.035Z,22.20
2018-04-19T07:21:06.057Z,22.30
2018-04-19T07:23:34.284Z,22.50
2018-04-19T07:26:03.695Z,22.50
2018-04-19T07:28:31.927Z,22.80
2018-04-19T07:31:00.166Z,22.90
2018-04-19T07:33:28.439Z,23.10
2018-04-19T07:35:56.676Z,23.20
2018-04-19T07:38:24.900Z,23.40
2018-04-19T07:40:53.179Z,23.50
2018-04-19T07:43:22.548Z,23.70
2018-04-19T07:48:20.657Z,23.90
2018-04-19T07:50:48.879Z,24.00
2018-04-19T07:53:18.672Z,24.20
2018-04-19T07:55:47.238Z,24.20
2018-04-19T07:58:15.466Z,24.40
2018-04-19T08:00:43.729Z,24.50
2018-04-19T08:03:13.103Z,24.60
2018-04-19T08:05:41.393Z,24.70
2018-04-19T08:08:09.608Z,24.80
2018-04-19T08:10:37.847Z,24.90
2018-04-19T08:13:06.108Z,25.00
2018-04-19T08:15:34.339Z,25.00
2018-04-19T08:20:32.850Z,25.30
2018-04-19T08:23:01.079Z,25.50
2018-04-19T08:25:30.908Z,25.50
2018-04-19T08:27:59.138Z,25.60
2018-04-19T08:30:27.362Z,25.70
2018-04-19T08:32:55.643Z,25.70
2018-04-19T08:35:24.672Z,25.90
2018-04-19T08:37:52.863Z,26.00
2018-04-19T08:40:21.899Z,26.20
2018-04-19T08:42:50.891Z,26.20
2018-04-19T08:45:19.121Z,26.30
2018-04-19T08:47:47.392Z,26.40
2018-04-19T08:50:15.657Z,26.40
2018-04-19T08:52:43.851Z,26.50
2018-04-19T08:55:12.159Z,26.70
2018-04-19T08:57:40.420Z,26.90
2018-04-19T09:02:38.134Z,27.50
2018-04-19T09:05:07.128Z,28.10
2018-04-19T09:10:05.850Z,29.50
2018-04-19T09:12:34.475Z,30.30
2018-04-19T09:15:02.704Z,31.30
2018-04-19T09:17:30.994Z,32.50
2018-04-19T09:20:00.806Z,33.50
2018-04-19T09:22:29.415Z,34.30
2018-04-19T09:24:57.684Z,35.10
2018-04-19T09:29:55.375Z,37.00
2018-04-19T09:32:23.644Z,37.90
2018-04-19T09:34:51.875Z,38.30
2018-04-19T09:37:20.112Z,38.40
2018-04-19T09:39:49.534Z,38.50
2018-04-19T09:42:18.532Z,38.10
2018-04-19T09:44:46.767Z,37.70
2018-04-19T09:49:44.492Z,38.10
2018-04-19T09:52:14.236Z,37.80
2018-04-19T09:54:43.041Z,37.60
2018-04-19T09:57:12.406Z,37.60
2018-04-19T09:59:40.639Z,37.70
2018-04-19T10:02:08.911Z,37.30
2018-04-19T10:04:37.140Z,36.90
2018-04-19T10:07:05.370Z,36.60
2018-04-19T10:09:34.782Z,36.60
2018-04-19T10:12:03.010Z,36.40
2018-04-19T10:14:31.238Z,36.00
2018-04-19T10:16:59.513Z,36.20
2018-04-19T10:19:29.247Z,36.00
2018-04-19T10:21:57.479Z,35.70
2018-04-19T10:24:25.747Z,35.80
2018-04-19T10:26:54.367Z,35.40
2018-04-19T10:29:22.599Z,35.20
2018-04-19T10:31:51.655Z,35.40
2018-04-19T10:34:21.160Z,35.20
2018-04-19T10:36:50.164Z,35.00
2018-04-19T10:41:48.291Z,34.60
2018-04-19T10:46:46.782Z,33.70
2018-04-19T10:49:15.012Z,33.60
2018-04-19T10:54:13.899Z,32.80
2018-04-19T10:56:43.267Z,32.80
2018-04-19T10:59:11.500Z,32.70
2018-04-19T11:01:41.270Z,32.80
2018-04-19T11:04:09.505Z,32.80
2018-04-19T11:06:37.739Z,32.80
2018-04-19T11:09:07.523Z,32.80
2018-04-19T11:11:35.770Z,32.80
2018-04-19T11:14:04.003Z,32.80
2018-04-19T11:16:32.259Z,32.70
2018-04-19T11:19:00.503Z,32.80
2018-04-19T11:21:28.795Z,32.90
2018-04-19T11:23:58.516Z,33.00
2018-04-19T11:26:26.742Z,33.10
2018-04-19T11:28:55.416Z,33.10
2018-04-19T11:31:24.411Z,33.20
2018-04-19T11:36:22.899Z,33.20
2018-04-19T11:38:51.896Z,33.30
2018-04-19T11:41:21.636Z,33.20
2018-04-19T11:43:49.899Z,33.30
2018-04-19T11:46:18.128Z,33.40
2018-04-19T11:48:47.168Z,33.50
2018-04-19T11:51:16.776Z,33.70
2018-04-19T11:53:46.515Z,33.80
2018-04-19T11:56:14.742Z,33.80
2018-04-19T11:58:43.796Z,33.80
2018-04-19T12:01:12.065Z,33.80
2018-04-19T12:03:40.265Z,33.80
2018-04-19T12:06:10.052Z,33.80
2018-04-19T12:08:38.274Z,33.90
2018-04-19T12:11:06.502Z,33.80
2018-04-19T12:16:04.624Z,33.80
2018-04-19T12:18:32.850Z,33.80
2018-04-19T12:21:01.513Z,33.80
2018-04-19T12:23:29.739Z,33.80
2018-04-19T12:25:57.975Z,33.90
2018-04-19T12:28:27.015Z,34.00
2018-04-19T12:30:55.243Z,33.90
2018-04-19T12:33:23.473Z,33.90
2018-04-19T12:35:52.523Z,33.90
2018-04-19T12:38:21.528Z,33.90
2018-04-19T12:40:49.758Z,33.90
2018-04-19T12:45:48.044Z,33.90
2018-04-19T12:48:16.267Z,33.80
2018-04-19T12:50:46.068Z,33.70
2018-04-19T12:53:14.297Z,33.70
2018-04-19T12:55:43.290Z,33.50
2018-04-19T12:58:12.743Z,33.50
2018-04-19T13:00:40.967Z,33.50
2018-04-19T13:03:09.599Z,33.50
2018-04-19T13:05:41.499Z,33.50
2018-04-19T13:08:09.729Z,33.40
2018-04-19T13:10:39.093Z,33.30
2018-04-19T13:13:08.412Z,33.20
2018-04-19T13:15:37.403Z,33.00
2018-04-19T13:18:05.701Z,32.90
2018-04-19T13:23:03.379Z,32.50
2018-04-19T13:25:32.012Z,32.40
2018-04-19T13:28:00.666Z,32.20
2018-04-19T13:30:28.896Z,32.00
2018-04-19T13:32:57.932Z,31.90
2018-04-19T13:37:56.071Z,31.60
2018-04-19T13:40:25.068Z,31.50
2018-04-19T13:42:53.515Z,31.40
2018-04-19T13:45:23.134Z,31.20
2018-04-19T13:47:52.511Z,31.10
2018-04-19T13:50:20.742Z,30.90
2018-04-19T13:52:49.006Z,30.80
2018-04-19T13:55:17.239Z,30.60
2018-04-19T13:57:45.595Z,30.60
2018-04-19T14:00:13.823Z,30.50
2018-04-19T14:02:42.052Z,30.40
2018-04-19T14:05:10.591Z,30.40
2018-04-19T14:07:39.662Z,30.30
2018-04-19T14:10:08.216Z,30.30
2018-04-19T14:12:37.947Z,30.20
2018-04-19T14:15:06.950Z,30.10
2018-04-19T14:17:36.003Z,30.10
2018-04-19T14:20:04.238Z,30.10
2018-04-19T14:22:32.468Z,30.00
2018-04-19T14:25:00.808Z,30.00
2018-04-19T14:27:29.043Z,30.10
2018-04-19T14:29:57.266Z,30.00
2018-04-19T14:32:25.543Z,29.90
2018-04-19T14:34:53.775Z,29.90
2018-04-19T14:37:22.003Z,29.90
2018-04-19T14:42:19.727Z,29.90
2018-04-19T14:44:47.958Z,29.90
2018-04-19T14:47:16.235Z,29.90
2018-04-19T14:52:13.918Z,29.90
2018-04-19T14:54:42.195Z,29.90
2018-04-19T14:57:10.427Z,29.90
2018-04-19T14:59:38.651Z,29.80
2018-04-19T15:02:08.066Z,29.80
2018-04-19T15:04:36.308Z,29.90
2018-04-19T15:07:06.042Z,29.90
2018-04-19T15:09:35.641Z,29.80
2018-04-19T15:12:04.259Z,29.70
2018-04-19T15:14:33.260Z,29.70
2018-04-19T15:17:01.528Z,29.70
2018-04-19T15:19:29.759Z,29.70
2018-04-19T15:24:28.983Z,29.70
2018-04-19T15:26:57.205Z,29.80
2018-04-19T15:29:25.493Z,29.70
2018-04-19T15:31:53.728Z,29.60
2018-04-19T15:34:21.976Z,29.60
2018-04-19T15:36:50.302Z,29.60
2018-04-19T15:39:18.516Z,29.60
2018-04-19T15:41:46.754Z,29.60
2018-04-19T15:44:15.787Z,29.60
2018-04-19T15:46:44.015Z,29.50
2018-04-19T15:49:12.274Z,29.60
2018-04-19T15:51:40.519Z,29.50
2018-04-19T15:54:08.746Z,29.50
2018-04-19T15:56:37.383Z,29.50
2018-04-19T16:01:35.104Z,29.50
2018-04-19T16:04:03.335Z,29.50
2018-04-19T16:06:31.608Z,29.50
2018-04-19T16:08:59.850Z,29.40
2018-04-19T16:11:28.143Z,29.40
2018-04-19T16:13:57.178Z,29.30
2018-04-19T16:16:25.407Z,29.40
2018-04-19T16:18:54.472Z,29.30
2018-04-19T16:21:22.674Z,29.30
2018-04-19T16:23:51.664Z,29.30
2018-04-19T16:26:19.886Z,29.30
2018-04-19T16:28:48.619Z,29.30
2018-04-19T16:33:46.239Z,29.20
2018-04-19T16:36:14.931Z,29.20
2018-04-19T16:38:44.334Z,29.20
2018-04-19T16:41:12.531Z,29.10
2018-04-19T16:43:40.824Z,29.10
2018-04-19T16:48:38.927Z,29.10
2018-04-19T16:51:07.195Z,29.10
2018-04-19T16:53:35.423Z,29.00
2018-04-19T16:56:03.662Z,28.90
2018-04-19T16:58:31.928Z,28.90
2018-04-19T17:01:00.154Z,28.80
2018-04-19T17:03:28.383Z,28.80
2018-04-19T17:08:27.718Z,28.60
2018-04-19T17:10:55.948Z,28.60
2018-04-19T17:13:24.256Z,28.50
2018-04-19T17:15:52.875Z,28.40
2018-04-19T17:18:21.103Z,28.40
2018-04-19T17:23:19.249Z,28.30
2018-04-19T17:25:48.613Z,28.20
2018-04-19T17:28:17.647Z,28.10
2018-04-19T17:30:46.639Z,28.10
2018-04-19T17:33:14.877Z,28.00
2018-04-19T17:35:43.138Z,27.90
2018-04-19T17:38:12.179Z,27.80
2018-04-19T17:40:41.175Z,27.80
2018-04-19T17:43:09.431Z,27.80
2018-04-19T17:45:37.663Z,27.70
2018-04-19T17:48:06.019Z,27.60
2018-04-19T17:50:35.695Z,27.50
2018-04-19T17:53:03.927Z,27.40
2018-04-19T18:00:32.603Z,27.20
2018-04-19T18:03:00.879Z,27.20
2018-04-19T18:05:30.249Z,27.10
2018-04-19T18:07:58.474Z,27.10
2018-04-19T18:10:26.746Z,27.00
2018-04-19T18:12:54.979Z,27.00
2018-04-19T18:15:24.736Z,26.90
2018-04-19T18:17:53.035Z,26.80
2018-04-19T18:22:51.127Z,26.70
2018-04-19T18:25:19.383Z,26.60
2018-04-19T18:30:17.444Z,26.50
2018-04-19T18:32:45.727Z,26.40
2018-04-19T18:35:15.459Z,26.40
2018-04-19T18:37:44.454Z,26.30
2018-04-19T18:40:14.323Z,26.20
2018-04-19T18:42:42.946Z,26.10
2018-04-19T18:47:40.679Z,26.00
2018-04-19T18:50:08.913Z,26.00
2018-04-19T18:52:37.131Z,25.90
2018-04-19T18:55:05.435Z,25.90
2018-04-19T18:57:34.799Z,25.80
2018-04-19T19:00:04.542Z,25.70
2018-04-19T19:02:32.860Z,25.70
2018-04-19T19:05:01.103Z,25.70
2018-04-19T19:07:29.350Z,25.70
2018-04-19T19:09:57.640Z,25.60
2018-04-19T19:12:27.384Z,25.50
2018-04-19T19:17:37.635Z,25.40
2018-04-19T19:22:37.637Z,25.20
2018-04-19T19:25:06.658Z,25.10
2018-04-19T19:27:36.090Z,25.00
2018-04-19T19:30:06.000Z,24.80
2018-04-19T19:32:34.238Z,24.70
2018-04-19T19:35:02.515Z,24.60
2018-04-19T19:37:30.758Z,24.40
2018-04-19T19:39:59.000Z,24.30
2018-04-19T19:42:27.485Z,24.20
2018-04-19T19:44:56.860Z,24.00
2018-04-19T19:47:25.106Z,23.90
2018-04-19T19:49:54.903Z,23.80
2018-04-19T19:52:23.151Z,23.60
2018-04-19T19:54:51.395Z,23.50
2018-04-19T19:57:19.678Z,23.50
2018-04-19T19:59:47.907Z,23.40
2018-04-19T20:02:16.143Z,23.20
2018-04-19T20:04:45.575Z,23.10
2018-04-19T20:07:14.590Z,23.00
2018-04-19T20:09:43.959Z,22.90
2018-04-19T20:14:42.103Z,22.70
2018-04-19T20:17:10.343Z,22.70
2018-04-19T20:19:38.649Z,22.50
2018-04-19T20:22:06.887Z,22.50
2018-04-19T20:24:35.134Z,22.40
2018-04-19T20:27:04.564Z,22.30
2018-04-19T20:29:32.804Z,22.30
2018-04-19T20:32:01.808Z,22.20
2018-04-19T20:34:31.215Z,22.10
2018-04-19T20:36:59.459Z,22.10
2018-04-19T20:41:57.995Z,21.90
2018-04-19T20:44:27.379Z,21.90
2018-04-19T20:46:56.050Z,21.90
2018-04-19T20:49:24.321Z,21.80
2018-04-19T20:51:53.671Z,21.80
2018-04-19T20:54:22.715Z,21.80
2018-04-19T20:56:50.959Z,21.90
2018-04-19T20:59:20.694Z,22.00
2018-04-19T21:01:48.967Z,22.10
2018-04-19T21:04:17.193Z,22.30
2018-04-19T21:06:45.431Z,22.40
2018-04-19T21:09:14.471Z,22.50
2018-04-19T21:11:42.703Z,22.60
2018-04-19T21:14:10.943Z,22.80
2018-04-19T21:16:40.724Z,22.90
2018-04-19T21:19:08.959Z,23.00
2018-04-19T21:21:37.229Z,23.10
2018-04-19T21:24:05.498Z,23.20
2018-04-19T21:26:33.735Z,23.20
2018-04-19T21:29:02.002Z,23.30
2018-04-19T21:33:59.745Z,23.50
2018-04-19T21:36:27.983Z,23.40
2018-04-19T21:38:56.211Z,23.50
2018-04-19T21:41:24.895Z,23.50
2018-04-19T21:43:53.131Z,23.60
2018-04-19T21:46:22.131Z,23.60
2018-04-19T21:48:50.417Z,23.60
2018-04-19T21:51:18.658Z,23.70
2018-04-19T21:53:48.394Z,23.70
2018-04-19T21:56:16.689Z,23.60
2018-04-19T22:01:15.518Z,23.60
2018-04-19T22:03:43.798Z,23.60
2018-04-19T22:06:12.039Z,23.60
2018-04-19T22:08:41.415Z,23.60
2018-04-19T22:11:09.703Z,23.60
2018-04-19T22:13:37.934Z,23.50
2018-04-19T22:16:06.170Z,23.50
2018-04-19T22:18:35.580Z,23.50
2018-04-19T22:21:03.819Z,23.50
2018-04-19T22:23:32.967Z,23.40
2018-04-19T22:26:02.023Z,23.40
2018-04-19T22:28:30.268Z,23.40
2018-04-19T22:30:58.891Z,23.30
2018-04-19T22:33:27.179Z,23.30
2018-04-19T22:40:54.791Z,23.20
2018-04-19T22:43:23.035Z,23.30
2018-04-19T22:48:21.975Z,23.20
2018-04-19T22:50:51.728Z,23.30
2018-04-19T22:53:19.972Z,23.40
2018-04-19T22:55:48.255Z,23.30
2018-04-19T23:00:46.015Z,23.30
2018-04-19T23:03:14.254Z,23.40
2018-04-19T23:05:42.491Z,23.30
2018-04-19T23:08:10.770Z,23.30
2018-04-19T23:10:40.142Z,23.20
2018-04-19T23:13:08.399Z,23.20
2018-04-19T23:15:38.191Z,23.20
2018-04-19T23:18:06.428Z,23.10
2018-04-19T23:20:34.663Z,23.10
2018-04-19T23:23:03.171Z,23.10
2018-04-19T23:25:31.431Z,23.00
2018-04-19T23:27:59.726Z,23.00
2018-04-19T23:30:28.709Z,22.90
2018-04-19T23:32:56.942Z,22.90
2018-04-19T23:35:25.211Z,22.90
2018-04-19T23:37:53.487Z,22.80
2018-04-19T23:40:21.767Z,22.80
2018-04-19T23:42:51.511Z,22.70
2018-04-19T23:47:49.667Z,22.50
2018-04-19T23:50:17.891Z,22.40
2018-04-19T23:52:46.163Z,22.30
2018-04-19T23:55:14.408Z,22.30
2018-04-19T23:57:42.636Z,22.20
